Retour à l'actu

LFPG

METAR

LFPG 020400Z 33012KT 9999 FEW016 BKN040 BKN100 05/02 Q1005 NOSIG

TAF

LFPG 020300Z
  • | 0203/0306 34010KT 9999 SCT013 BKN030 TX05/0213Z TNM01/0306Z
  • | TEMPO 0203/0204 BKN013
  • | TEMPO 0212/0215 33015G25KT
  • | BECMG 0221/0223 27005KT